Billingsley, Alabama
Current Conditions -  °F | °C
As of 8:35 AM on Friday 28 Nov 2014 (Local Time) from K1A9 Reporting Station
Clear Clear  
Wind Chill: 32°   Ceiling: Unl
Heat Index: 37°   Visibility: 10mi
Dew Point: 28°   Wind: 6mph
Humidity: 71%   Direction: 10°N
Pressure: 30.45"   Gusts: NA
Location:  32.66°N, 86.72°W
Report Text: K1A9 281435Z AUTO 01005KT 10SM CLR 03/M02 A3045 RMK AO2 T00251022
Loading
Personal Weather Stations






























Interactive Weather Map New forecast layout! Learn more

10-Day Weather Forecast

Advertisements
Track Severe Weather on mobile